Time;durP1;ratioP1;P1;durP2;ratioP2;P2;SDS_P1;SDS_P2;PMS_P1;PMS_P2;Temp;Humidity;BMP_temperature;BMP_pressure;BME280_temperature;BME280_humidity;BME280_pressure;Samples;Min_cycle;Max_cycle;Signal;HPM_P1;HPM_P2
2022/10/19 00:00:04;;;;;;;8.63;3.60;;;16.70;86.20;;;;;;4994233;28;20453;-79
2022/10/19 00:02:35;;;;;;;10.40;2.90;;;16.70;86.20;;;;;;4989573;28;20580;-79
2022/10/19 00:05:03;;;;;;;6.50;2.90;;;16.70;86.20;;;;;;4996932;28;20483;-77
2022/10/19 00:07:31;;;;;;;6.13;2.70;;;16.60;86.20;;;;;;4997503;28;20495;-80
2022/10/19 00:10:00;;;;;;;6.27;2.63;;;16.60;86.20;;;;;;4996614;28;20961;-79
2022/10/19 00:12:28;;;;;;;6.30;2.83;;;16.60;86.20;;;;;;5011681;28;21023;-80
2022/10/19 00:14:57;;;;;;;9.90;3.27;;;16.60;86.20;;;;;;5000967;28;20942;-80
2022/10/19 00:17:25;;;;;;;12.43;2.93;;;16.60;86.20;;;;;;5003488;28;20449;-79
2022/10/19 00:19:53;;;;;;;5.73;3.20;;;16.60;86.20;;;;;;5003235;28;20468;-78
2022/10/19 00:22:21;;;;;;;5.13;2.40;;;16.60;86.20;;;;;;4999400;28;21008;-80
2022/10/19 00:24:49;;;;;;;5.60;3.00;;;16.50;86.30;;;;;;5002681;28;20461;-80
2022/10/19 00:27:17;;;;;;;6.07;2.47;;;16.60;86.20;;;;;;5001564;28;20453;-79
2022/10/19 00:29:45;;;;;;;5.57;2.63;;;16.50;86.20;;;;;;5001278;28;20481;-78
2022/10/19 00:32:14;;;;;;;12.70;2.70;;;16.50;86.20;;;;;;5001872;28;20477;-79
2022/10/19 00:34:42;;;;;;;5.40;2.77;;;16.50;86.30;;;;;;5002589;28;21012;-80
2022/10/19 00:37:10;;;;;;;6.30;3.00;;;16.50;86.30;;;;;;5000945;28;20465;-78
2022/10/19 00:39:39;;;;;;;4.83;2.47;;;16.50;86.30;;;;;;5003365;28;20460;-78
2022/10/19 00:42:10;;;;;;;18.83;10.00;;;16.50;86.20;;;;;;5018850;28;20485;-77
2022/10/19 00:45:14;;;;;;;9.57;4.57;;;16.50;86.10;;;;;;5000011;28;20468;-78
2022/10/19 00:47:45;;;;;;;5.87;2.87;;;16.50;86.20;;;;;;4948247;28;20471;-77
2022/10/19 00:50:16;;;;;;;6.20;2.90;;;16.50;86.40;;;;;;4948093;28;20554;-77
2022/10/19 00:52:44;;;;;;;8.20;4.70;;;16.50;86.30;;;;;;4977993;28;20540;-79
2022/10/19 00:55:12;;;;;;;6.80;3.57;;;16.40;86.30;;;;;;4997978;28;20453;-79
2022/10/19 00:57:41;;;;;;;5.37;3.13;;;16.40;86.30;;;;;;5004239;28;20532;-80
2022/10/19 01:00:09;;;;;;;5.00;2.43;;;16.40;86.30;;;;;;5004461;28;21130;-79
2022/10/19 01:02:37;;;;;;;7.97;3.23;;;16.40;86.40;;;;;;4998867;28;20472;-79
2022/10/19 01:05:08;;;;;;;6.57;3.57;;;16.40;86.40;;;;;;5001017;28;20464;-79
2022/10/19 01:07:36;;;;;;;7.07;3.03;;;16.40;86.30;;;;;;5012284;28;21166;-79
2022/10/19 01:10:05;;;;;;;7.30;3.53;;;16.40;86.20;;;;;;4998465;28;20480;-78
2022/10/19 01:12:57;;;;;;;7.20;3.63;;;16.40;86.30;;;;;;5001402;28;20479;-79
2022/10/19 01:15:37;;;;;;;20.23;7.50;;;16.40;86.30;;;;;;4996398;28;20457;-80
2022/10/19 01:18:12;;;;;;;11.90;4.87;;;16.40;86.20;;;;;;5005887;28;21132;-79
2022/10/19 01:21:16;;;;;;;5.73;3.53;;;16.30;86.20;;;;;;5000214;28;20554;-78
2022/10/19 01:24:11;;;;;;;7.00;3.73;;;16.30;86.20;;;;;;5004750;28;20492;-79
2022/10/19 01:27:06;;;;;;;6.07;3.20;;;16.30;86.20;;;;;;4997852;28;21050;-78
2022/10/19 01:30:04;;;;;;;18.30;11.20;;;16.30;86.20;;;;;;4996869;28;20844;-78
2022/10/19 01:32:42;;;;;;;25.80;11.43;;;16.30;86.20;;;;;;4994194;28;20489;-81
2022/10/19 01:35:13;;;;;;;15.43;6.33;;;16.20;86.00;;;;;;5003432;28;20869;-80
2022/10/19 01:37:49;;;;;;;8.93;4.60;;;16.20;86.10;;;;;;4999436;28;20461;-78
2022/10/19 01:40:24;;;;;;;11.93;3.00;;;16.10;86.10;;;;;;5002893;28;20457;-80
2022/10/19 01:43:02;;;;;;;7.23;2.57;;;16.10;86.20;;;;;;5021562;28;20476;-79
2022/10/19 01:45:38;;;;;;;13.33;3.10;;;16.10;86.20;;;;;;5001390;28;20958;-79
2022/10/19 01:48:12;;;;;;;9.97;3.47;;;16.00;86.20;;;;;;5000665;28;21033;-79
2022/10/19 01:50:45;;;;;;;5.60;2.60;;;16.00;86.10;;;;;;5001270;28;21314;-79
2022/10/19 01:53:17;;;;;;;6.30;3.47;;;16.00;86.30;;;;;;5016843;28;20827;-79
2022/10/19 01:55:47;;;;;;;19.40;5.43;;;16.00;86.30;;;;;;5014342;28;20454;-79
2022/10/19 01:58:21;;;;;;;8.50;4.83;;;16.00;86.20;;;;;;4999917;28;20449;-79
2022/10/19 02:00:52;;;;;;;8.47;3.50;;;16.00;86.20;;;;;;5002988;28;20491;-79
2022/10/19 02:03:23;;;;;;;19.73;11.37;;;15.90;86.10;;;;;;5001707;28;20482;-80
2022/10/19 02:05:52;;;;;;;9.80;3.50;;;15.90;86.20;;;;;;4999099;28;20972;-78
2022/10/19 02:08:26;;;;;;;5.33;2.73;;;15.80;86.20;;;;;;5005636;28;20520;-79
2022/10/19 02:10:55;;;;;;;6.53;2.17;;;15.80;86.30;;;;;;4999823;28;20477;-77
2022/10/19 02:13:24;;;;;;;10.10;3.83;;;15.80;86.20;;;;;;4997742;28;20476;-79
2022/10/19 02:15:56;;;;;;;5.20;2.90;;;15.80;86.30;;;;;;5017184;28;20457;-80
2022/10/19 02:18:31;;;;;;;10.03;4.67;;;15.80;86.30;;;;;;5002468;28;20462;-79
2022/10/19 02:21:01;;;;;;;12.30;7.67;;;15.80;86.40;;;;;;5003910;28;20454;-79
2022/10/19 02:23:29;;;;;;;6.40;4.03;;;15.90;86.30;;;;;;5014466;28;20966;-79
2022/10/19 02:25:57;;;;;;;6.50;2.00;;;15.90;86.30;;;;;;5017871;28;20514;-78
2022/10/19 02:28:27;;;;;;;4.90;2.17;;;15.90;86.30;;;;;;5014445;28;20463;-78
2022/10/19 02:30:56;;;;;;;4.23;2.10;;;15.90;86.20;;;;;;5012902;28;20991;-78
2022/10/19 02:33:27;;;;;;;4.90;2.23;;;15.90;86.20;;;;;;5000077;28;21013;-78
2022/10/19 02:35:55;;;;;;;6.53;2.20;;;15.90;86.10;;;;;;4997699;28;20481;-78
2022/10/19 02:38:24;;;;;;;6.40;2.60;;;15.80;86.10;;;;;;5015535;28;20540;-79
2022/10/19 02:40:59;;;;;;;4.83;2.00;;;15.80;86.00;;;;;;4999788;28;20461;-79
2022/10/19 02:43:29;;;;;;;4.50;2.20;;;15.80;86.10;;;;;;5017206;28;20535;-80
2022/10/19 02:46:01;;;;;;;4.20;1.97;;;15.80;86.10;;;;;;4999460;28;20894;-79
2022/10/19 02:48:33;;;;;;;7.10;3.03;;;15.80;86.10;;;;;;5003015;28;21225;-78
2022/10/19 02:51:01;;;;;;;5.20;2.33;;;15.80;86.00;;;;;;5002439;28;21013;-80
2022/10/19 02:53:29;;;;;;;20.37;11.50;;;15.80;86.00;;;;;;4998700;28;20489;-79
2022/10/19 02:55:57;;;;;;;7.77;4.60;;;15.80;86.00;;;;;;5001426;28;20456;-79
2022/10/19 02:58:25;;;;;;;7.10;3.10;;;15.80;85.90;;;;;;4998253;28;20449;-79
2022/10/19 03:00:53;;;;;;;27.17;9.53;;;15.80;85.90;;;;;;4997674;28;20510;-79
2022/10/19 03:03:21;;;;;;;24.97;13.10;;;15.80;85.80;;;;;;5002303;28;20469;-79
2022/10/19 03:05:51;;;;;;;21.13;13.50;;;15.80;85.80;;;;;;4995932;28;20445;-77
2022/10/19 03:08:19;;;;;;;9.73;5.83;;;15.80;85.80;;;;;;5008240;28;20457;-79
2022/10/19 03:10:47;;;;;;;9.30;3.43;;;15.80;85.80;;;;;;5014671;28;21103;-79
2022/10/19 03:13:15;;;;;;;5.63;2.63;;;15.80;85.80;;;;;;5012381;28;21140;-77
2022/10/19 03:15:43;;;;;;;5.20;2.70;;;15.80;85.80;;;;;;4998644;28;21035;-80
2022/10/19 03:18:10;;;;;;;5.13;2.50;;;15.80;85.80;;;;;;4997125;28;20506;-79
2022/10/19 03:20:38;;;;;;;4.63;2.30;;;15.80;85.70;;;;;;4998971;28;20539;-79
2022/10/19 03:23:08;;;;;;;4.23;2.00;;;15.80;85.70;;;;;;4997886;28;20473;-78
2022/10/19 03:25:36;;;;;;;4.97;2.10;;;15.80;85.70;;;;;;4998566;28;20884;-79
2022/10/19 03:28:04;;;;;;;8.50;3.40;;;15.80;85.70;;;;;;4997842;28;20499;-79
2022/10/19 03:30:32;;;;;;;6.57;2.30;;;15.80;85.70;;;;;;4996020;28;20449;-79
2022/10/19 03:32:59;;;;;;;4.87;2.37;;;15.70;85.70;;;;;;4998165;28;21351;-79
2022/10/19 03:35:27;;;;;;;5.40;2.40;;;15.70;85.70;;;;;;4999868;28;20444;-78
2022/10/19 03:37:55;;;;;;;5.40;2.83;;;15.80;85.70;;;;;;5000257;28;21258;-78
2022/10/19 03:40:25;;;;;;;5.83;3.10;;;15.80;85.70;;;;;;4997927;28;20512;-78
2022/10/19 03:42:53;;;;;;;7.50;3.37;;;15.80;85.70;;;;;;5000708;28;20476;-78
2022/10/19 03:45:21;;;;;;;8.53;3.23;;;15.70;85.70;;;;;;5001160;28;20453;-78
2022/10/19 03:47:49;;;;;;;6.23;3.10;;;15.80;85.70;;;;;;5000438;28;20453;-80
2022/10/19 03:50:19;;;;;;;9.20;4.17;;;15.70;85.60;;;;;;5002265;28;20452;-79
2022/10/19 03:52:48;;;;;;;7.77;2.93;;;15.70;85.60;;;;;;4998698;28;20551;-79
2022/10/19 03:55:17;;;;;;;10.80;4.93;;;15.70;85.60;;;;;;5010842;28;20876;-79
2022/10/19 03:57:46;;;;;;;6.80;3.33;;;15.70;85.60;;;;;;4992433;28;20489;-80
2022/10/19 04:00:15;;;;;;;8.30;3.90;;;15.70;85.60;;;;;;4997010;28;20457;-80
2022/10/19 04:02:42;;;;;;;8.27;3.73;;;15.70;85.50;;;;;;4996648;28;20589;-78
2022/10/19 04:05:10;;;;;;;7.93;3.97;;;15.70;85.50;;;;;;4997198;28;20457;-77
2022/10/19 04:07:38;;;;;;;6.80;3.90;;;15.70;85.50;;;;;;4999890;28;20461;-77
2022/10/19 04:10:07;;;;;;;7.63;3.37;;;15.70;85.50;;;;;;4994907;28;21381;-78
2022/10/19 04:12:35;;;;;;;8.47;4.67;;;15.70;85.50;;;;;;4995299;28;20485;-78
2022/10/19 04:15:05;;;;;;;5.67;2.80;;;15.70;85.50;;;;;;5000112;28;21085;-81
2022/10/19 04:17:33;;;;;;;6.90;3.60;;;15.70;85.50;;;;;;4998637;28;20454;-79
2022/10/19 04:20:01;;;;;;;6.57;3.10;;;15.70;85.50;;;;;;5012303;28;20523;-79
2022/10/19 04:22:29;;;;;;;6.47;3.30;;;15.70;85.60;;;;;;5012029;28;20535;-78
2022/10/19 04:24:57;;;;;;;7.73;3.23;;;15.70;85.60;;;;;;4996228;28;20553;-79
2022/10/19 04:27:25;;;;;;;6.10;3.10;;;15.70;85.60;;;;;;4997685;28;20461;-79
2022/10/19 04:29:53;;;;;;;5.33;2.80;;;15.70;85.50;;;;;;4992209;28;20480;-80
2022/10/19 04:32:22;;;;;;;5.43;2.50;;;15.70;85.50;;;;;;4993859;28;20480;-80
2022/10/19 04:34:50;;;;;;;7.43;2.93;;;15.70;85.50;;;;;;4999399;28;20449;-79
2022/10/19 04:37:18;;;;;;;10.30;3.80;;;15.70;85.50;;;;;;5000587;28;20516;-78
2022/10/19 04:39:46;;;;;;;9.20;4.10;;;15.70;85.40;;;;;;4998244;28;20473;-78
2022/10/19 04:42:14;;;;;;;9.20;3.90;;;15.70;85.40;;;;;;4994823;28;20501;-78
2022/10/19 04:44:42;;;;;;;8.47;3.87;;;15.70;85.30;;;;;;5014215;28;20538;-80
2022/10/19 04:47:10;;;;;;;6.43;3.23;;;15.60;85.20;;;;;;4997212;28;20449;-78
2022/10/19 04:49:39;;;;;;;7.80;3.73;;;15.60;85.30;;;;;;5000026;28;21049;-79
2022/10/19 04:52:07;;;;;;;8.30;4.00;;;15.60;85.30;;;;;;4997493;28;20499;-80
2022/10/19 04:54:35;;;;;;;8.30;3.83;;;15.60;85.10;;;;;;5014345;28;20503;-79
2022/10/19 04:57:04;;;;;;;8.00;4.00;;;15.50;85.00;;;;;;4998717;28;20965;-77
2022/10/19 04:59:32;;;;;;;7.20;3.67;;;15.50;85.00;;;;;;5003122;28;20908;-80
2022/10/19 05:02:00;;;;;;;8.60;4.43;;;15.40;85.20;;;;;;5003004;28;21150;-80
2022/10/19 05:04:27;;;;;;;8.90;4.20;;;15.40;85.30;;;;;;5000537;28;20509;-78
2022/10/19 05:06:57;;;;;;;10.17;4.50;;;15.40;85.40;;;;;;5004055;28;20465;-78
2022/10/19 05:09:25;;;;;;;27.33;11.10;;;15.50;85.40;;;;;;5002795;28;20534;-78
2022/10/19 05:11:53;;;;;;;19.60;8.40;;;15.50;85.30;;;;;;5000983;28;20482;-79
2022/10/19 05:14:21;;;;;;;18.17;8.27;;;15.50;85.30;;;;;;5001346;28;20448;-80
2022/10/19 05:16:49;;;;;;;12.93;5.90;;;15.50;85.40;;;;;;5016045;28;21038;-78
2022/10/19 05:19:17;;;;;;;16.93;6.87;;;15.50;85.30;;;;;;5003604;28;20453;-78
2022/10/19 05:21:45;;;;;;;11.23;5.57;;;15.50;85.30;;;;;;5016739;28;20481;-80
2022/10/19 05:24:15;;;;;;;10.90;5.90;;;15.50;85.30;;;;;;5000471;28;20504;-79
2022/10/19 05:26:43;;;;;;;11.40;5.17;;;15.50;85.30;;;;;;5002372;28;20515;-78
2022/10/19 05:29:12;;;;;;;10.50;5.53;;;15.60;85.30;;;;;;4998615;28;20500;-78
2022/10/19 05:31:40;;;;;;;11.60;5.90;;;15.60;85.30;;;;;;5001438;28;20488;-79
2022/10/19 05:34:08;;;;;;;13.93;7.27;;;15.60;85.30;;;;;;5015702;28;20470;-78
2022/10/19 05:36:38;;;;;;;22.30;11.43;;;15.60;85.30;;;;;;5006858;28;20539;-79
2022/10/19 05:39:08;;;;;;;23.60;10.23;;;15.60;85.30;;;;;;5003069;28;20542;-78
2022/10/19 05:41:37;;;;;;;13.33;5.97;;;15.60;85.30;;;;;;5014662;28;20488;-78
2022/10/19 05:44:06;;;;;;;13.30;6.20;;;15.60;85.30;;;;;;5012846;28;20457;-79
2022/10/19 05:46:34;;;;;;;11.67;5.00;;;15.60;85.20;;;;;;4998982;28;20469;-79
2022/10/19 05:49:02;;;;;;;13.80;7.30;;;15.60;85.20;;;;;;4997820;28;20482;-78
2022/10/19 05:51:30;;;;;;;14.17;6.93;;;15.70;85.20;;;;;;4998912;28;20474;-80
2022/10/19 05:53:58;;;;;;;11.23;6.60;;;15.70;85.20;;;;;;5002100;28;20558;-78
2022/10/19 05:56:28;;;;;;;12.00;6.80;;;15.60;85.20;;;;;;5001885;28;20859;-80
2022/10/19 05:58:59;;;;;;;11.80;6.33;;;15.60;85.20;;;;;;5008520;28;20511;-78
2022/10/19 06:01:28;;;;;;;13.13;7.00;;;15.60;85.20;;;;;;5006822;28;20480;-80
2022/10/19 06:03:59;;;;;;;12.77;7.53;;;15.60;85.20;;;;;;5002463;28;20541;-78
2022/10/19 06:06:28;;;;;;;14.23;8.20;;;15.60;85.10;;;;;;5008529;28;20453;-80
2022/10/19 06:08:57;;;;;;;15.23;8.50;;;15.60;85.00;;;;;;5003442;28;20458;-79
2022/10/19 06:11:27;;;;;;;14.53;8.67;;;15.50;84.90;;;;;;5003525;28;20470;-78
2022/10/19 06:13:59;;;;;;;16.10;7.30;;;15.40;84.90;;;;;;5007287;28;20470;-79
2022/10/19 06:16:28;;;;;;;19.13;8.53;;;15.40;85.10;;;;;;5001087;28;20500;-79
2022/10/19 06:18:57;;;;;;;24.93;10.50;;;15.30;85.10;;;;;;5002037;28;21007;-79
2022/10/19 06:21:26;;;;;;;26.93;9.50;;;15.30;85.40;;;;;;5001447;28;20508;-80
2022/10/19 06:23:56;;;;;;;21.47;9.53;;;15.30;85.40;;;;;;5018533;28;20524;-78
2022/10/19 06:26:25;;;;;;;35.50;11.40;;;15.30;85.50;;;;;;4999132;28;20495;-80
2022/10/19 06:28:59;;;;;;;22.90;10.50;;;15.20;85.60;;;;;;5002422;28;20483;-79
2022/10/19 06:31:27;;;;;;;24.73;11.03;;;15.20;85.60;;;;;;5000491;28;21039;-80
2022/10/19 06:33:56;;;;;;;37.00;12.50;;;15.20;85.70;;;;;;5001044;28;21279;-78
2022/10/19 06:36:25;;;;;;;39.53;12.70;;;15.20;85.70;;;;;;4998262;28;20456;-78
2022/10/19 06:38:55;;;;;;;27.53;12.40;;;15.20;85.80;;;;;;4996029;28;20500;-78
2022/10/19 06:41:23;;;;;;;36.37;14.20;;;15.10;85.80;;;;;;5001484;28;20457;-78
2022/10/19 06:43:52;;;;;;;37.50;14.43;;;15.00;85.90;;;;;;5003894;28;20453;-78
2022/10/19 06:46:24;;;;;;;36.17;13.20;;;15.00;86.00;;;;;;5003165;28;20491;-78
2022/10/19 06:48:53;;;;;;;44.57;14.43;;;15.00;86.20;;;;;;4997134;28;20515;-80
2022/10/19 06:51:23;;;;;;;34.53;12.87;;;15.00;86.20;;;;;;4999741;28;20452;-79
2022/10/19 06:53:51;;;;;;;33.37;12.10;;;15.00;86.30;;;;;;4998973;28;20506;-81
2022/10/19 06:56:25;;;;;;;37.57;13.90;;;15.00;86.40;;;;;;4999771;28;20536;-78
2022/10/19 06:58:53;;;;;;;32.77;12.23;;;14.90;86.50;;;;;;5000126;28;20520;-79
2022/10/19 07:01:23;;;;;;;33.60;11.93;;;14.90;86.70;;;;;;5019134;28;20983;-80
2022/10/19 07:03:52;;;;;;;42.00;14.10;;;14.90;86.80;;;;;;5013657;28;20556;-79
2022/10/19 07:06:20;;;;;;;43.20;17.73;;;15.00;86.80;;;;;;4998550;28;20461;-80
2022/10/19 07:08:48;;;;;;;36.07;17.20;;;15.00;86.90;;;;;;4999160;28;20482;-79
2022/10/19 07:11:19;;;;;;;44.50;15.63;;;15.00;86.90;;;;;;5000723;28;20450;-79
2022/10/19 07:13:47;;;;;;;41.40;16.93;;;15.00;86.90;;;;;;4999215;28;21089;-79
2022/10/19 07:16:17;;;;;;;39.43;20.17;;;15.00;87.00;;;;;;4996473;28;20453;-78
2022/10/19 07:18:51;;;;;;;28.77;12.80;;;15.00;87.10;;;;;;5002262;28;21276;-79
2022/10/19 07:21:21;;;;;;;33.10;13.13;;;15.00;87.20;;;;;;5001178;28;20460;-79
2022/10/19 07:23:49;;;;;;;23.67;11.73;;;15.00;87.20;;;;;;4999358;28;20519;-79
2022/10/19 07:26:20;;;;;;;37.17;13.63;;;15.00;87.20;;;;;;4998012;28;20970;-79
2022/10/19 07:28:49;;;;;;;35.20;13.83;;;15.00;87.20;;;;;;4997520;28;20580;-79
2022/10/19 07:31:20;;;;;;;30.10;12.70;;;14.90;87.30;;;;;;5015734;28;20973;-77
2022/10/19 07:33:52;;;;;;;30.70;13.27;;;14.90;87.30;;;;;;4997739;28;20821;-80
2022/10/19 07:36:19;;;;;;;48.80;14.90;;;14.90;87.50;;;;;;5000156;28;20461;-79
2022/10/19 07:38:47;;;;;;;36.03;15.27;;;14.90;87.50;;;;;;4999618;28;20518;-79
2022/10/19 07:41:17;;;;;;;34.77;14.20;;;15.00;87.80;;;;;;4998045;28;20449;-78
2022/10/19 07:43:47;;;;;;;34.20;14.43;;;15.00;87.80;;;;;;5001797;28;20481;-78
2022/10/19 07:46:17;;;;;;;40.93;15.40;;;15.00;87.80;;;;;;4999080;28;20461;-80
2022/10/19 07:48:45;;;;;;;36.20;14.20;;;15.00;87.80;;;;;;4994183;28;20506;-79
2022/10/19 07:51:17;;;;;;;36.57;15.30;;;15.00;87.90;;;;;;5015533;28;20958;-78
2022/10/19 07:53:46;;;;;;;40.60;16.07;;;15.00;87.90;;;;;;4999752;28;20484;-77
2022/10/19 07:56:15;;;;;;;42.10;17.30;;;15.00;88.10;;;;;;5017375;28;20449;-79
2022/10/19 07:58:44;;;;;;;43.83;14.47;;;15.00;88.10;;;;;;5000614;28;20519;-79
2022/10/19 08:01:13;;;;;;;50.03;23.67;;;15.00;88.00;;;;;;4998101;28;20522;-78
2022/10/19 08:03:42;;;;;;;60.93;28.60;;;15.10;88.10;;;;;;5007044;28;20445;-78
2022/10/19 08:06:31;;;;;;;42.40;16.27;;;15.10;88.20;;;;;;5008422;28;20492;-79
2022/10/19 08:08:59;;;;;;;46.10;18.73;;;15.10;88.20;;;;;;4993497;28;20837;-79
2022/10/19 08:11:31;;;;;;;43.10;17.30;;;15.10;88.20;;;;;;4998334;28;21015;-79
2022/10/19 08:14:01;;;;;;;41.90;18.10;;;15.10;88.20;;;;;;5010695;28;20532;-79
2022/10/19 08:16:32;;;;;;;45.40;20.73;;;15.10;88.10;;;;;;4996438;28;20524;-79
2022/10/19 08:19:03;;;;;;;41.77;16.50;;;15.10;88.20;;;;;;4994788;28;20876;-80
2022/10/19 08:21:32;;;;;;;41.53;16.27;;;15.10;88.20;;;;;;5012364;28;20530;-79
2022/10/19 08:24:00;;;;;;;45.33;19.00;;;15.10;88.20;;;;;;5014247;28;20493;-80
2022/10/19 08:26:29;;;;;;;42.40;19.50;;;15.10;88.30;;;;;;4997769;28;20466;-78
2022/10/19 08:29:00;;;;;;;41.90;17.23;;;15.10;88.20;;;;;;5002010;28;20472;-80
2022/10/19 08:31:28;;;;;;;33.37;16.53;;;15.10;88.40;;;;;;4994992;28;20484;-78
2022/10/19 08:33:57;;;;;;;33.40;15.70;;;15.10;88.40;;;;;;5001331;28;20523;-78
2022/10/19 08:36:26;;;;;;;28.80;14.53;;;15.10;88.40;;;;;;5001352;28;20465;-78
2022/10/19 08:38:55;;;;;;;32.10;14.07;;;15.20;88.40;;;;;;5005038;28;20477;-79
2022/10/19 08:41:31;;;;;;;33.10;13.90;;;15.10;88.40;;;;;;5003151;28;20883;-79
2022/10/19 08:44:23;;;;;;;33.83;15.43;;;15.10;88.30;;;;;;5018107;28;20453;-78
2022/10/19 08:46:59;;;;;;;29.47;13.43;;;15.10;88.50;;;;;;5004939;28;20805;-80
2022/10/19 08:49:31;;;;;;;35.83;14.83;;;15.10;88.60;;;;;;5002883;28;20446;-79
2022/10/19 08:52:02;;;;;;;26.10;13.77;;;15.10;88.50;;;;;;5000649;28;21140;-78
2022/10/19 08:54:43;;;;;;;29.97;14.93;;;15.10;88.60;;;;;;5004149;28;20488;-79
2022/10/19 08:57:23;;;;;;;31.20;15.93;;;15.10;88.50;;;;;;5003055;28;20457;-78
2022/10/19 08:59:58;;;;;;;31.70;15.90;;;15.10;88.40;;;;;;5000902;28;21117;-80
2022/10/19 09:02:40;;;;;;;32.23;16.47;;;15.10;88.50;;;;;;4998761;28;20484;-79
2022/10/19 09:05:16;;;;;;;28.10;14.43;;;15.10;88.70;;;;;;5003498;28;20444;-78
2022/10/19 09:07:53;;;;;;;29.50;16.37;;;15.10;88.70;;;;;;5004571;28;20448;-79
2022/10/19 09:10:27;;;;;;;31.50;15.73;;;15.10;88.80;;;;;;5000476;28;20502;-78
2022/10/19 09:12:59;;;;;;;35.50;17.77;;;15.10;88.80;;;;;;4997439;28;20480;-79
2022/10/19 09:15:33;;;;;;;30.70;16.50;;;15.20;88.80;;;;;;5002871;28;20477;-78
2022/10/19 09:18:01;;;;;;;30.13;15.87;;;15.20;88.70;;;;;;4999241;28;20461;-80
2022/10/19 09:20:34;;;;;;;30.50;15.47;;;15.20;88.60;;;;;;5019288;28;20453;-78
2022/10/19 09:23:06;;;;;;;33.20;16.70;;;15.10;88.50;;;;;;4993448;28;20488;-78
2022/10/19 09:25:41;;;;;;;36.73;17.43;;;15.10;88.60;;;;;;5010920;28;20460;-79
2022/10/19 09:28:25;;;;;;;35.70;17.23;;;15.10;88.70;;;;;;5014030;28;21066;-79
2022/10/19 09:31:04;;;;;;;36.20;15.27;;;15.10;88.70;;;;;;4998254;28;20528;-78
2022/10/19 09:33:35;;;;;;;32.10;15.10;;;15.10;88.60;;;;;;5019316;28;20489;-79
2022/10/19 09:36:06;;;;;;;29.00;13.20;;;15.10;88.60;;;;;;4997254;28;20477;-80
2022/10/19 09:38:34;;;;;;;25.17;12.50;;;15.10;88.70;;;;;;5017258;28;20458;-79
2022/10/19 09:41:17;;;;;;;30.23;14.30;;;15.10;88.80;;;;;;5002167;28;20458;-79
2022/10/19 09:43:51;;;;;;;25.60;13.80;;;15.10;88.80;;;;;;4994255;28;20477;-78
2022/10/19 09:46:30;;;;;;;23.40;13.00;;;15.10;88.90;;;;;;5001336;28;20459;-79
2022/10/19 09:49:01;;;;;;;25.77;13.83;;;15.10;88.70;;;;;;4999582;28;20462;-77
2022/10/19 09:51:40;;;;;;;26.00;12.87;;;15.00;88.70;;;;;;5000577;28;20484;-78
2022/10/19 09:54:26;;;;;;;28.93;13.90;;;15.00;88.70;;;;;;5005907;28;20473;-78
2022/10/19 09:56:56;;;;;;;26.17;14.63;;;15.00;88.70;;;;;;5001982;28;20516;-80
2022/10/19 09:59:29;;;;;;;28.70;14.87;;;15.00;88.70;;;;;;5001436;28;20527;-80
2022/10/19 10:02:15;;;;;;;28.47;14.77;;;15.00;88.70;;;;;;5015848;28;20481;-79
2022/10/19 10:04:46;;;;;;;32.53;16.80;;;15.00;88.70;;;;;;5017614;28;20453;-79
2022/10/19 10:07:17;;;;;;;27.60;14.00;;;15.00;88.80;;;;;;4995579;28;20493;-78
2022/10/19 10:09:46;;;;;;;23.60;13.40;;;15.00;88.80;;;;;;5001177;28;20515;-78
2022/10/19 10:12:16;;;;;;;26.77;14.93;;;15.00;88.80;;;;;;5014356;28;20520;-79
2022/10/19 10:14:44;;;;;;;26.57;15.50;;;15.00;88.80;;;;;;4995538;28;20446;-78
2022/10/19 10:17:16;;;;;;;28.63;13.93;;;15.10;88.80;;;;;;4999782;28;20450;-78
2022/10/19 10:20:02;;;;;;;31.83;15.63;;;15.10;88.80;;;;;;5012143;28;20518;-79
2022/10/19 10:22:32;;;;;;;35.70;18.30;;;15.10;88.70;;;;;;4998003;28;20526;-78
2022/10/19 10:25:02;;;;;;;30.33;15.80;;;15.10;88.70;;;;;;5000114;28;20454;-78
2022/10/19 10:27:34;;;;;;;29.47;15.20;;;15.10;88.70;;;;;;4998451;28;20445;-80
2022/10/19 10:30:08;;;;;;;28.17;15.27;;;15.20;88.70;;;;;;5002714;28;20552;-78
2022/10/19 10:32:38;;;;;;;27.80;14.40;;;15.20;88.80;;;;;;5000557;28;20503;-80
2022/10/19 10:35:19;;;;;;;28.00;15.37;;;15.20;88.80;;;;;;5017217;28;20584;-77
2022/10/19 10:37:47;;;;;;;31.37;14.40;;;15.20;88.80;;;;;;4999310;28;20459;-80
2022/10/19 10:40:21;;;;;;;31.17;14.53;;;15.30;88.70;;;;;;5016943;28;20465;-79
2022/10/19 10:42:54;;;;;;;27.70;14.70;;;15.30;88.60;;;;;;4997168;28;20487;-78
2022/10/19 10:45:26;;;;;;;30.30;14.10;;;15.30;88.50;;;;;;5000688;28;20495;-78
2022/10/19 10:47:54;;;;;;;28.33;14.80;;;15.30;88.60;;;;;;5000975;28;20462;-79
2022/10/19 10:50:24;;;;;;;26.40;13.83;;;15.30;88.40;;;;;;5000628;28;20492;-80
2022/10/19 10:53:01;;;;;;;30.80;14.83;;;15.30;88.40;;;;;;4997320;28;20478;-78
2022/10/19 10:55:30;;;;;;;29.93;15.50;;;15.20;88.40;;;;;;5000740;28;20477;-79
2022/10/19 10:58:17;;;;;;;37.23;15.60;;;15.20;88.50;;;;;;4993280;28;20512;-79
2022/10/19 11:00:46;;;;;;;35.23;16.70;;;15.20;88.40;;;;;;4998180;28;21044;-78
2022/10/19 11:03:21;;;;;;;31.20;17.20;;;15.20;88.50;;;;;;5016683;28;20869;-78
2022/10/19 11:05:54;;;;;;;28.53;15.80;;;15.20;88.60;;;;;;4996907;28;20483;-78
2022/10/19 11:08:27;;;;;;;32.17;17.30;;;15.20;88.50;;;;;;5013126;28;20465;-78
2022/10/19 11:11:00;;;;;;;28.13;14.17;;;15.20;88.70;;;;;;4999222;28;21082;-80
2022/10/19 11:13:37;;;;;;;39.23;16.83;;;15.20;88.50;;;;;;5000550;28;20481;-80
2022/10/19 11:16:12;;;;;;;30.67;16.43;;;15.20;88.50;;;;;;5017442;28;20488;-79
2022/10/19 11:18:44;;;;;;;33.37;15.50;;;15.20;88.70;;;;;;5019324;28;20556;-78
2022/10/19 11:21:17;;;;;;;31.57;17.03;;;15.20;88.60;;;;;;4993547;28;20516;-83
2022/10/19 11:23:55;;;;;;;26.73;15.80;;;15.20;88.60;;;;;;4993782;28;20483;-82
2022/10/19 11:26:41;;;;;;;31.33;16.70;;;15.20;88.40;;;;;;5004200;28;20488;-83
2022/10/19 11:29:25;;;;;;;32.03;16.40;;;15.20;88.50;;;;;;4989627;28;20444;-81
2022/10/19 11:31:55;;;;;;;33.70;16.17;;;15.30;88.50;;;;;;4996465;28;20468;-82
2022/10/19 11:34:44;;;;;;;34.67;19.90;;;15.30;88.60;;;;;;4998896;28;20503;-82
2022/10/19 11:37:23;;;;;;;32.70;16.70;;;15.30;88.40;;;;;;5016620;28;20472;-80
2022/10/19 11:40:04;;;;;;;35.70;17.77;;;15.30;88.20;;;;;;5015772;28;20469;-81
2022/10/19 11:42:49;;;;;;;37.53;19.00;;;15.30;88.10;;;;;;5015093;28;20468;-81
2022/10/19 11:45:31;;;;;;;33.07;18.53;;;15.20;88.10;;;;;;4994582;28;20464;-81
2022/10/19 11:48:15;;;;;;;35.10;17.67;;;15.20;88.30;;;;;;5003327;28;20452;-82
2022/10/19 11:50:51;;;;;;;32.87;18.40;;;15.20;88.20;;;;;;5014516;28;20475;-81
2022/10/19 11:53:34;;;;;;;38.43;19.80;;;15.20;88.20;;;;;;4995910;28;20484;-79
2022/10/19 11:56:08;;;;;;;35.10;20.00;;;15.20;88.30;;;;;;5015392;28;20481;-81
2022/10/19 11:59:00;;;;;;;34.70;17.60;;;15.20;88.30;;;;;;5002107;28;20447;-81
2022/10/19 12:01:47;;;;;;;29.27;16.83;;;15.20;88.40;;;;;;4996466;28;20543;-79
2022/10/19 12:04:42;;;;;;;25.30;14.53;;;15.20;88.30;;;;;;5000806;28;20467;-80
2022/10/19 12:07:32;;;;;;;29.40;16.40;;;15.20;88.30;;;;;;4999098;28;20450;-81
2022/10/19 12:10:07;;;;;;;25.87;15.53;;;15.20;88.40;;;;;;5002885;28;20460;-77
2022/10/19 12:12:38;;;;;;;23.67;14.80;;;15.20;88.30;;;;;;5017436;28;20484;-78
2022/10/19 12:15:25;;;;;;;26.63;16.13;;;15.20;88.30;;;;;;5012001;28;21011;-79
2022/10/19 12:17:59;;;;;;;22.63;14.07;;;15.30;88.20;;;;;;5003296;28;20516;-77
2022/10/19 12:20:32;;;;;;;28.90;15.30;;;15.20;88.10;;;;;;5003110;28;20512;-77
2022/10/19 12:23:14;;;;;;;29.27;20.10;;;15.20;88.20;;;;;;5003503;28;20476;-80
2022/10/19 12:25:45;;;;;;;33.40;20.23;;;15.30;88.20;;;;;;4999958;28;20456;-78
2022/10/19 12:28:21;;;;;;;26.37;17.13;;;15.20;88.10;;;;;;5003926;28;20479;-77
2022/10/19 12:30:49;;;;;;;29.37;18.77;;;15.20;88.20;;;;;;5005674;28;20464;-77
2022/10/19 12:33:23;;;;;;;83.57;47.87;;;15.20;88.00;;;;;;5006035;28;20626;-78
2022/10/19 12:35:59;;;;;;;59.50;37.50;;;15.20;88.10;;;;;;5006839;28;20453;-77
2022/10/19 12:38:37;;;;;;;68.93;41.43;;;15.20;88.10;;;;;;5005859;28;20448;-78
2022/10/19 12:41:22;;;;;;;42.97;29.97;;;15.20;88.10;;;;;;5018608;28;20484;-79
2022/10/19 12:44:02;;;;;;;28.47;18.17;;;15.30;88.10;;;;;;5007593;28;20946;-79
2022/10/19 12:46:38;;;;;;;28.93;18.20;;;15.30;88.10;;;;;;4998279;28;20453;-79
2022/10/19 12:49:37;;;;;;;24.47;14.60;;;15.30;87.90;;;;;;5017898;28;21053;-80
2022/10/19 12:52:07;;;;;;;23.60;14.50;;;15.30;87.80;;;;;;5017779;28;20483;-80
2022/10/19 12:54:37;;;;;;;22.47;13.70;;;15.30;87.80;;;;;;5009685;28;20457;-79
2022/10/19 12:57:27;;;;;;;18.10;11.30;;;15.30;87.90;;;;;;5004473;28;20534;-81
2022/10/19 13:00:00;;;;;;;20.23;12.63;;;15.20;87.70;;;;;;5001424;28;20473;-80